Time;durP1;ratioP1;P1;durP2;ratioP2;P2;SDS_P1;SDS_P2;PMS_P1;PMS_P2;Temp;Humidity;BMP_temperature;BMP_pressure;BME280_temperature;BME280_humidity;BME280_pressure;Samples;Min_cycle;Max_cycle;Signal;HPM_P1;HPM_P2
2022/05/04 00:01:57;;;;;;;11.35;2.92;;;7.10;78.20;;;;;;5053803;28;20064;-45
2022/05/04 00:04:24;;;;;;;6.38;2.30;;;7.00;77.90;;;;;;5053734;28;20029;-45
2022/05/04 00:06:50;;;;;;;9.13;2.60;;;7.10;78.00;;;;;;5039608;28;20159;-46
2022/05/04 00:09:17;;;;;;;4.15;2.10;;;7.10;77.50;;;;;;5041382;28;20043;-45
2022/05/04 00:11:44;;;;;;;7.20;3.05;;;7.10;77.50;;;;;;5027557;28;20049;-45
2022/05/04 00:14:11;;;;;;;10.45;3.78;;;7.10;77.70;;;;;;5059007;28;20027;-45
2022/05/04 00:16:38;;;;;;;9.52;2.40;;;7.10;77.30;;;;;;5052852;28;20036;-47
2022/05/04 00:19:07;;;;;;;10.90;2.53;;;7.00;77.60;;;;;;5016005;28;20026;-47
2022/05/04 00:21:33;;;;;;;8.93;2.25;;;7.00;77.80;;;;;;5046913;28;20044;-47
2022/05/04 00:24:00;;;;;;;7.25;2.65;;;7.00;78.10;;;;;;5050189;28;20377;-44
2022/05/04 00:26:26;;;;;;;8.63;2.28;;;7.00;78.10;;;;;;5054895;28;20442;-47
2022/05/04 00:28:53;;;;;;;10.55;2.70;;;7.10;78.00;;;;;;5052157;28;20025;-43
2022/05/04 00:31:20;;;;;;;7.28;2.30;;;7.10;78.10;;;;;;5035490;28;20380;-45
2022/05/04 00:33:46;;;;;;;8.90;2.58;;;7.10;78.40;;;;;;5036983;28;20025;-45
2022/05/04 00:36:12;;;;;;;7.25;2.03;;;7.20;78.30;;;;;;5053256;28;20047;-45
2022/05/04 00:38:38;;;;;;;6.13;1.70;;;7.20;78.40;;;;;;5051862;28;20029;-45
2022/05/04 00:41:04;;;;;;;7.53;2.28;;;7.20;78.50;;;;;;5053824;28;20033;-48
2022/05/04 00:43:33;;;;;;;10.52;2.95;;;7.20;78.50;;;;;;5054535;28;20029;-44
2022/05/04 00:46:00;;;;;;;7.80;2.40;;;7.20;78.70;;;;;;5052871;28;20033;-45
2022/05/04 00:48:29;;;;;;;7.38;2.42;;;7.20;78.50;;;;;;5054422;28;20048;-47
2022/05/04 00:50:55;;;;;;;9.50;2.50;;;7.30;78.50;;;;;;5052778;28;20045;-46
2022/05/04 00:53:23;;;;;;;8.52;2.53;;;7.30;78.70;;;;;;5054839;28;20706;-45
2022/05/04 00:55:51;;;;;;;9.13;2.83;;;7.30;78.60;;;;;;5052387;28;20441;-44
2022/05/04 01:01:08;;;;;;;6.72;2.70;;;7.30;78.60;;;;;;5043206;28;20032;-45
2022/05/04 01:03:37;;;;;;;9.60;3.08;;;7.30;78.50;;;;;;5054243;28;20033;-46
2022/05/04 01:06:02;;;;;;;7.17;2.83;;;7.40;78.30;;;;;;5054031;28;20067;-44
2022/05/04 01:08:28;;;;;;;7.78;2.85;;;7.30;78.40;;;;;;5053098;28;20405;-44
2022/05/04 01:10:55;;;;;;;8.90;2.58;;;7.30;78.50;;;;;;5052217;28;20036;-43
2022/05/04 01:13:22;;;;;;;7.95;2.80;;;7.30;78.40;;;;;;5054375;28;20035;-44
2022/05/04 01:15:51;;;;;;;12.88;3.08;;;7.30;78.60;;;;;;5052548;28;20091;-46
2022/05/04 01:18:21;;;;;;;7.05;2.42;;;7.30;78.60;;;;;;5052970;28;20106;-48
2022/05/04 01:20:47;;;;;;;13.25;2.90;;;7.40;78.30;;;;;;5053775;28;20158;-45
2022/05/04 01:23:16;;;;;;;6.95;1.88;;;7.40;77.80;;;;;;5052795;28;20104;-45
2022/05/04 01:25:41;;;;;;;7.70;2.08;;;7.50;77.70;;;;;;5035329;28;20358;-44
2022/05/04 01:28:13;;;;;;;7.38;2.03;;;7.50;77.50;;;;;;5054681;28;20025;-44
2022/05/04 01:30:39;;;;;;;4.90;2.25;;;7.50;77.50;;;;;;5049178;28;20025;-46
2022/05/04 01:33:06;;;;;;;6.50;2.55;;;7.50;77.70;;;;;;5052864;28;20028;-44
2022/05/04 01:35:33;;;;;;;5.93;2.60;;;7.60;77.60;;;;;;5033957;28;20480;-44
2022/05/04 01:38:00;;;;;;;4.97;2.20;;;7.60;77.20;;;;;;5033045;28;20032;-45
2022/05/04 01:40:27;;;;;;;4.65;2.13;;;7.70;77.30;;;;;;5034907;28;20433;-45
2022/05/04 01:42:56;;;;;;;11.18;2.03;;;7.60;77.20;;;;;;5054756;28;20043;-45
2022/05/04 01:45:23;;;;;;;7.35;3.03;;;7.60;76.40;;;;;;5052591;28;20055;-45
2022/05/04 01:47:49;;;;;;;8.70;2.00;;;7.60;76.70;;;;;;5051600;28;20052;-44
2022/05/04 01:50:17;;;;;;;3.65;1.75;;;7.60;76.70;;;;;;5050972;28;20025;-44
2022/05/04 01:52:46;;;;;;;6.65;2.00;;;7.70;76.80;;;;;;5052084;28;20044;-46
2022/05/04 01:55:14;;;;;;;8.30;1.97;;;7.60;76.90;;;;;;5035567;28;20115;-45
2022/05/04 01:57:41;;;;;;;14.15;3.30;;;7.60;77.00;;;;;;5052156;28;20354;-45
2022/05/04 02:00:08;;;;;;;4.22;1.77;;;7.60;77.40;;;;;;5030570;28;20087;-45
2022/05/04 02:02:36;;;;;;;8.73;2.80;;;7.60;77.70;;;;;;5046449;28;20386;-47
2022/05/04 02:05:03;;;;;;;5.72;2.22;;;7.60;77.60;;;;;;5051132;28;20041;-44
2022/05/04 02:07:31;;;;;;;8.77;2.40;;;7.60;77.60;;;;;;5052167;28;20044;-44
2022/05/04 02:09:58;;;;;;;7.15;2.25;;;7.50;77.60;;;;;;5052694;28;20028;-44
2022/05/04 02:12:27;;;;;;;8.45;2.15;;;7.60;77.70;;;;;;5051811;28;20112;-46
2022/05/04 02:14:54;;;;;;;9.95;2.95;;;7.60;77.50;;;;;;5052222;28;20454;-45
2022/05/04 02:17:21;;;;;;;7.00;2.22;;;7.60;77.50;;;;;;5051372;28;20449;-45
2022/05/04 02:19:48;;;;;;;7.72;2.70;;;7.60;77.30;;;;;;5052891;28;20108;-45
2022/05/04 02:22:14;;;;;;;9.73;2.40;;;7.60;77.20;;;;;;5051759;28;20032;-45
2022/05/04 02:24:40;;;;;;;8.30;2.55;;;7.60;77.30;;;;;;5052174;28;20082;-44
2022/05/04 02:27:07;;;;;;;6.85;2.60;;;7.60;77.40;;;;;;5047867;28;20028;-45
2022/05/04 02:29:36;;;;;;;8.73;2.80;;;7.60;77.50;;;;;;5031286;28;20037;-46
2022/05/04 02:32:04;;;;;;;6.88;2.47;;;7.60;77.50;;;;;;5050835;28;20087;-45
2022/05/04 02:34:31;;;;;;;5.18;2.20;;;7.60;77.50;;;;;;5052302;28;20051;-44
2022/05/04 02:39:43;;;;;;;9.98;3.13;;;7.60;77.70;;;;;;5051340;28;20369;-45
2022/05/04 02:42:10;;;;;;;9.93;3.80;;;7.60;77.50;;;;;;5050623;28;20033;-44
2022/05/04 02:44:36;;;;;;;7.28;2.63;;;7.70;77.20;;;;;;5043276;28;20025;-45
2022/05/04 02:47:06;;;;;;;5.90;2.90;;;7.70;77.40;;;;;;5052017;28;20499;-45
2022/05/04 02:49:33;;;;;;;5.72;2.10;;;7.70;77.20;;;;;;5050924;28;20037;-48
2022/05/04 02:51:58;;;;;;;6.15;2.17;;;7.60;77.30;;;;;;5051804;28;20032;-45
2022/05/04 02:54:25;;;;;;;9.02;3.05;;;7.60;77.40;;;;;;5051389;28;20032;-47
2022/05/04 02:56:51;;;;;;;4.35;1.98;;;7.60;77.10;;;;;;5034630;28;20037;-47
2022/05/04 02:59:18;;;;;;;7.25;2.70;;;7.50;77.30;;;;;;5048612;28;20535;-44
2022/05/04 03:04:32;;;;;;;13.40;2.72;;;7.60;76.90;;;;;;5046542;28;20040;-47
2022/05/04 03:06:59;;;;;;;8.57;2.65;;;7.60;76.50;;;;;;5050275;28;20033;-45
2022/05/04 03:09:26;;;;;;;6.25;2.10;;;7.60;76.50;;;;;;5052076;28;20450;-45
2022/05/04 03:11:55;;;;;;;7.85;3.05;;;7.70;76.80;;;;;;5033089;28;20035;-45
2022/05/04 03:14:26;;;;;;;11.05;2.45;;;7.60;76.40;;;;;;5035346;28;20335;-45
2022/05/04 03:16:53;;;;;;;6.88;2.50;;;7.60;76.20;;;;;;5042242;28;20041;-48
2022/05/04 03:19:23;;;;;;;8.57;2.80;;;7.60;76.10;;;;;;5022565;28;20083;-45
2022/05/04 03:21:52;;;;;;;8.43;3.10;;;7.60;76.40;;;;;;5051458;28;20029;-47
2022/05/04 03:24:20;;;;;;;7.00;2.63;;;7.70;76.30;;;;;;5031237;28;20449;-44
2022/05/04 03:26:47;;;;;;;7.22;2.53;;;7.70;76.60;;;;;;5051261;28;20064;-46
2022/05/04 03:29:14;;;;;;;9.32;3.55;;;7.70;76.30;;;;;;5052857;28;20048;-45
2022/05/04 03:31:40;;;;;;;7.32;2.50;;;7.70;76.40;;;;;;5050698;28;20040;-46
2022/05/04 03:34:07;;;;;;;11.27;3.55;;;7.70;76.50;;;;;;5051932;28;20037;-44
2022/05/04 03:36:38;;;;;;;6.53;2.63;;;7.70;77.00;;;;;;5049637;28;20107;-49
2022/05/04 03:39:06;;;;;;;7.43;2.65;;;7.70;76.70;;;;;;5033387;28;20033;-47
2022/05/04 03:41:33;;;;;;;8.50;2.45;;;7.60;76.50;;;;;;5038308;28;20045;-45
2022/05/04 03:44:01;;;;;;;8.88;2.75;;;7.60;76.70;;;;;;5028651;28;20498;-45
2022/05/04 03:46:50;;;;;;;9.32;3.03;;;7.70;76.70;;;;;;5051762;28;20124;-46
2022/05/04 03:49:22;;;;;;;10.52;3.42;;;7.70;76.30;;;;;;5034007;28;20039;-46
2022/05/04 03:51:50;;;;;;;11.35;3.72;;;7.70;76.30;;;;;;5043187;28;20029;-45
2022/05/04 03:54:17;;;;;;;8.85;5.10;;;7.70;76.30;;;;;;5054423;28;20079;-45
2022/05/04 03:56:44;;;;;;;11.48;3.67;;;7.70;76.50;;;;;;5054622;28;20036;-45
2022/05/04 03:59:15;;;;;;;10.07;3.28;;;7.70;76.50;;;;;;5054419;28;20025;-45
2022/05/04 04:01:42;;;;;;;9.68;4.13;;;7.70;76.60;;;;;;5045867;28;20385;-44
2022/05/04 04:04:09;;;;;;;9.38;2.80;;;7.80;76.70;;;;;;5054892;28;20037;-45
2022/05/04 04:06:35;;;;;;;9.68;3.10;;;7.70;76.70;;;;;;5052716;28;20107;-45
2022/05/04 04:09:05;;;;;;;12.15;3.42;;;7.70;76.80;;;;;;5053716;28;20403;-44
2022/05/04 04:11:32;;;;;;;6.20;2.65;;;7.70;76.90;;;;;;5052232;28;20086;-44
2022/05/04 04:13:59;;;;;;;11.98;3.30;;;7.70;76.80;;;;;;5053843;28;20108;-45
2022/05/04 04:16:26;;;;;;;6.25;3.40;;;7.70;76.30;;;;;;5036472;28;20029;-46
2022/05/04 04:18:54;;;;;;;5.13;2.65;;;7.80;76.40;;;;;;5054670;28;20036;-44
2022/05/04 04:24:06;;;;;;;7.25;2.85;;;7.80;76.60;;;;;;5052950;28;20052;-45
2022/05/04 04:26:32;;;;;;;8.45;3.03;;;7.80;76.40;;;;;;5023901;28;20021;-44
2022/05/04 04:29:00;;;;;;;8.35;3.78;;;7.90;76.30;;;;;;5053613;28;20040;-45
2022/05/04 04:31:27;;;;;;;10.30;3.67;;;7.90;76.40;;;;;;5053988;28;20393;-47
2022/05/04 04:33:53;;;;;;;5.95;3.17;;;7.90;76.40;;;;;;5055585;28;20021;-45
2022/05/04 04:36:19;;;;;;;5.40;2.90;;;7.90;76.10;;;;;;5051656;28;20083;-45
2022/05/04 04:38:46;;;;;;;7.68;2.80;;;7.90;76.00;;;;;;5052297;28;20025;-45
2022/05/04 04:41:13;;;;;;;5.88;2.67;;;7.90;75.70;;;;;;5053715;28;20107;-44
2022/05/04 04:43:39;;;;;;;6.65;2.80;;;7.90;76.00;;;;;;5053352;28;20029;-45
2022/05/04 04:46:06;;;;;;;6.32;2.42;;;8.00;76.10;;;;;;5052752;28;20111;-45
2022/05/04 04:48:32;;;;;;;12.63;3.40;;;8.00;76.10;;;;;;5055232;28;20067;-45
2022/05/04 04:50:58;;;;;;;7.28;2.15;;;8.00;76.10;;;;;;5053531;28;20041;-45
2022/05/04 04:53:26;;;;;;;9.73;2.80;;;8.00;76.30;;;;;;5054286;28;20056;-46
2022/05/04 04:55:54;;;;;;;6.53;2.42;;;8.00;76.00;;;;;;5053654;28;20147;-47
2022/05/04 04:58:20;;;;;;;8.25;2.45;;;8.10;75.40;;;;;;5053115;28;20091;-45
2022/05/04 05:00:47;;;;;;;9.70;2.83;;;8.20;75.10;;;;;;5031845;28;20056;-45
2022/05/04 05:03:14;;;;;;;6.18;2.10;;;8.20;75.20;;;;;;5038015;28;20037;-45
2022/05/04 05:05:41;;;;;;;11.07;2.70;;;8.30;75.40;;;;;;5039631;28;20059;-45
2022/05/04 05:08:09;;;;;;;8.35;2.00;;;8.30;74.70;;;;;;5051768;28;20037;-45
2022/05/04 05:10:36;;;;;;;7.05;2.35;;;8.40;74.50;;;;;;5051748;28;20112;-44
2022/05/04 05:13:09;;;;;;;8.85;2.65;;;8.40;73.90;;;;;;5052693;28;20036;-46
2022/05/04 05:18:25;;;;;;;5.50;2.65;;;8.50;73.50;;;;;;5015018;28;20087;-46
2022/05/04 05:20:52;;;;;;;8.38;3.15;;;8.50;72.60;;;;;;5033117;28;20048;-47
2022/05/04 05:23:19;;;;;;;5.63;2.17;;;8.50;73.20;;;;;;5052310;28;20404;-44
2022/05/04 05:25:49;;;;;;;6.93;2.67;;;8.60;73.00;;;;;;5050712;28;20048;-45
2022/05/04 05:28:15;;;;;;;7.97;2.55;;;8.60;73.20;;;;;;5053384;28;20160;-45
2022/05/04 05:30:42;;;;;;;5.03;3.10;;;8.70;73.40;;;;;;5034941;28;20043;-46
2022/05/04 05:33:09;;;;;;;8.07;2.55;;;8.70;72.90;;;;;;5053173;28;20347;-45
2022/05/04 05:35:37;;;;;;;4.72;1.77;;;8.80;73.20;;;;;;5052332;28;20442;-45
2022/05/04 05:38:05;;;;;;;6.55;2.35;;;8.80;72.00;;;;;;5052464;28;20067;-45
2022/05/04 05:40:32;;;;;;;8.77;1.98;;;8.90;72.40;;;;;;5050639;28;20025;-45
2022/05/04 05:42:58;;;;;;;6.75;2.30;;;8.90;71.90;;;;;;5053935;28;20061;-45
2022/05/04 05:45:25;;;;;;;6.05;1.70;;;9.00;71.10;;;;;;5038614;28;20033;-47
2022/05/04 05:47:52;;;;;;;12.63;2.60;;;9.10;71.30;;;;;;5051163;28;20389;-45
2022/05/04 05:50:18;;;;;;;6.35;2.40;;;9.10;70.70;;;;;;5052426;28;20025;-46
2022/05/04 05:52:44;;;;;;;8.60;1.90;;;9.10;69.70;;;;;;5053655;28;20049;-45
2022/05/04 05:55:11;;;;;;;10.45;2.15;;;9.20;69.70;;;;;;5051717;28;20109;-45
2022/05/04 05:57:36;;;;;;;5.15;2.22;;;9.20;69.90;;;;;;5053534;28;20033;-46
2022/05/04 06:00:07;;;;;;;6.25;2.75;;;9.20;69.30;;;;;;5051015;28;20044;-45
2022/05/04 06:02:34;;;;;;;3.10;1.58;;;9.20;69.30;;;;;;5052186;28;20044;-44
2022/05/04 06:05:01;;;;;;;8.13;2.05;;;9.30;69.40;;;;;;5050657;28;20033;-48
2022/05/04 06:07:27;;;;;;;5.75;2.47;;;9.30;69.80;;;;;;5033247;28;20044;-45
2022/05/04 06:09:56;;;;;;;7.68;2.30;;;9.40;70.40;;;;;;5051588;28;20035;-45
2022/05/04 06:12:23;;;;;;;7.00;1.90;;;9.50;69.20;;;;;;5051294;28;20105;-46
2022/05/04 06:14:50;;;;;;;8.05;2.22;;;9.60;67.90;;;;;;5052113;28;20060;-45
2022/05/04 06:17:17;;;;;;;12.43;2.50;;;9.70;68.40;;;;;;5047882;28;20478;-45
2022/05/04 06:19:44;;;;;;;7.88;2.17;;;9.80;67.70;;;;;;5039884;28;20033;-45
2022/05/04 06:22:10;;;;;;;6.65;1.52;;;9.90;67.80;;;;;;5052372;28;20095;-45
2022/05/04 06:24:37;;;;;;;7.15;2.50;;;9.90;68.20;;;;;;5051791;28;20040;-46
2022/05/04 06:27:04;;;;;;;7.07;3.47;;;10.00;67.80;;;;;;5049500;28;20106;-45
2022/05/04 06:35:09;;;;;;;12.50;3.63;;;9.90;66.40;;;;;;5051549;28;20103;-45
2022/05/04 06:37:35;;;;;;;7.90;3.33;;;10.00;65.80;;;;;;5049317;28;20120;-44
2022/05/04 06:40:03;;;;;;;15.88;4.07;;;10.10;65.90;;;;;;5034397;28;20124;-44
2022/05/04 06:42:30;;;;;;;11.77;3.30;;;10.20;66.30;;;;;;5051611;28;20115;-46
2022/05/04 06:44:57;;;;;;;7.97;2.72;;;10.30;65.40;;;;;;5051912;28;20021;-46
2022/05/04 06:47:24;;;;;;;9.48;2.75;;;10.30;65.80;;;;;;5052366;28;20047;-45
2022/05/04 06:49:50;;;;;;;8.30;2.28;;;10.30;63.40;;;;;;5049682;28;20408;-45
2022/05/04 06:52:16;;;;;;;19.30;12.15;;;10.30;63.70;;;;;;5051456;28;20355;-44
2022/05/04 06:54:43;;;;;;;11.63;3.92;;;10.40;64.20;;;;;;5051123;28;20028;-46
2022/05/04 06:57:09;;;;;;;7.75;1.80;;;10.40;64.40;;;;;;5051831;28;20040;-45
2022/05/04 06:59:36;;;;;;;11.85;2.78;;;10.60;64.30;;;;;;5047879;28;20025;-44
2022/05/04 07:02:04;;;;;;;7.93;1.88;;;10.70;63.50;;;;;;5045861;28;20029;-47
2022/05/04 07:04:30;;;;;;;7.32;2.05;;;10.80;64.10;;;;;;5050375;28;20029;-44
2022/05/04 07:06:55;;;;;;;6.60;1.98;;;10.80;63.40;;;;;;5051309;28;20339;-45
2022/05/04 07:09:22;;;;;;;7.70;2.20;;;10.80;64.40;;;;;;5050313;28;20182;-45
2022/05/04 07:11:49;;;;;;;10.13;2.10;;;10.80;62.50;;;;;;5033214;28;20025;-46
2022/05/04 07:14:16;;;;;;;4.90;2.20;;;10.80;61.80;;;;;;5048983;28;20032;-45
2022/05/04 07:16:43;;;;;;;9.52;2.63;;;10.90;61.80;;;;;;5051222;28;20108;-45
2022/05/04 07:19:09;;;;;;;8.23;1.98;;;10.90;63.10;;;;;;5051817;28;20159;-50
2022/05/04 07:21:38;;;;;;;9.68;2.28;;;10.90;62.60;;;;;;5040599;28;20112;-46
2022/05/04 07:24:05;;;;;;;6.45;1.90;;;10.70;62.60;;;;;;5028158;28;20040;-46
2022/05/04 07:26:33;;;;;;;8.35;1.98;;;10.80;62.70;;;;;;5039652;28;20033;-44
2022/05/04 07:29:00;;;;;;;6.80;2.00;;;10.80;63.90;;;;;;5056812;28;20381;-45
2022/05/04 07:31:27;;;;;;;6.00;2.22;;;10.90;64.10;;;;;;5053112;28;20056;-45
2022/05/04 07:33:54;;;;;;;4.85;1.58;;;11.00;63.30;;;;;;5037984;28;20025;-45
2022/05/04 07:36:21;;;;;;;6.90;2.45;;;11.20;63.50;;;;;;5055128;28;20641;-46
2022/05/04 07:38:53;;;;;;;8.85;2.50;;;11.40;62.60;;;;;;5055532;28;20037;-48
2022/05/04 07:44:05;;;;;;;5.93;1.83;;;11.10;60.80;;;;;;5040283;28;20048;-45
2022/05/04 07:46:33;;;;;;;8.70;2.00;;;10.90;61.50;;;;;;5054597;28;20370;-48
2022/05/04 07:48:59;;;;;;;9.60;1.80;;;10.90;61.60;;;;;;5070018;28;20033;-44
2022/05/04 07:51:25;;;;;;;6.78;1.83;;;10.90;63.40;;;;;;5034615;28;20036;-48
2022/05/04 07:53:51;;;;;;;5.15;1.50;;;10.90;62.20;;;;;;5054624;28;20126;-45
2022/05/04 07:56:18;;;;;;;4.68;1.30;;;10.90;61.50;;;;;;5055352;28;20464;-44
2022/05/04 07:58:45;;;;;;;10.35;2.20;;;11.10;61.30;;;;;;5054279;28;20033;-49
2022/05/04 08:06:44;;;;;;;8.40;2.58;;;11.30;59.70;;;;;;5050330;28;20079;-48
2022/05/04 08:09:10;;;;;;;6.93;1.80;;;11.20;59.80;;;;;;5054056;28;20116;-47
2022/05/04 08:11:38;;;;;;;9.05;2.25;;;11.10;59.30;;;;;;5037277;28;20477;-45
2022/05/04 08:14:05;;;;;;;6.88;2.50;;;11.20;60.40;;;;;;5035457;28;20025;-45
2022/05/04 08:16:33;;;;;;;7.88;1.80;;;11.10;59.20;;;;;;5053125;28;20251;-47
2022/05/04 08:19:00;;;;;;;4.75;1.63;;;11.00;59.00;;;;;;5053309;28;20037;-46
2022/05/04 08:21:27;;;;;;;7.85;1.40;;;11.30;59.50;;;;;;5054247;28;20124;-46
2022/05/04 08:23:54;;;;;;;4.70;1.83;;;11.50;58.60;;;;;;5054009;28;20033;-45
2022/05/04 08:26:21;;;;;;;5.05;1.38;;;11.60;58.70;;;;;;5054408;28;20036;-45
2022/05/04 08:28:47;;;;;;;5.43;1.67;;;11.70;57.90;;;;;;5054969;28;20021;-45
2022/05/04 08:31:14;;;;;;;7.85;1.80;;;11.90;57.70;;;;;;5053954;28;20842;-45
2022/05/04 08:33:41;;;;;;;6.65;2.17;;;12.10;56.80;;;;;;5034991;28;20430;-45
2022/05/04 08:36:08;;;;;;;5.55;1.40;;;12.20;55.80;;;;;;5052024;28;20043;-48
2022/05/04 08:38:35;;;;;;;6.68;1.88;;;12.20;54.80;;;;;;5035735;28;20103;-48
2022/05/04 08:41:02;;;;;;;7.72;1.73;;;11.80;55.30;;;;;;5053128;28;20035;-46
2022/05/04 08:43:33;;;;;;;4.57;1.52;;;11.80;54.30;;;;;;5036922;28;20047;-45
2022/05/04 08:46:02;;;;;;;4.90;1.73;;;12.00;55.80;;;;;;5050321;28;20621;-46
2022/05/04 08:48:32;;;;;;;6.90;1.60;;;12.00;54.70;;;;;;5053700;28;20029;-47
2022/05/04 08:51:03;;;;;;;4.20;1.50;;;12.10;54.90;;;;;;5053972;28;20041;-45
2022/05/04 08:53:31;;;;;;;6.45;1.20;;;11.90;56.30;;;;;;5051280;28;20118;-45
2022/05/04 08:55:59;;;;;;;5.72;1.55;;;11.90;55.40;;;;;;5053515;28;20029;-45
2022/05/04 08:58:33;;;;;;;7.53;2.10;;;11.90;57.30;;;;;;5048929;28;20346;-45
2022/05/04 09:01:03;;;;;;;5.18;1.38;;;11.70;55.40;;;;;;5068809;28;20036;-46
2022/05/04 09:03:31;;;;;;;12.57;2.45;;;11.50;56.20;;;;;;5048602;28;20025;-47
2022/05/04 09:05:58;;;;;;;6.68;1.60;;;11.50;58.30;;;;;;5067616;28;20033;-49
2022/05/04 09:08:25;;;;;;;5.90;1.52;;;11.70;56.90;;;;;;5035510;28;20351;-45
2022/05/04 09:10:51;;;;;;;4.82;1.83;;;11.60;57.10;;;;;;5014282;28;20120;-45
2022/05/04 09:13:19;;;;;;;6.57;1.58;;;11.90;56.50;;;;;;5030943;28;20440;-47
2022/05/04 09:15:54;;;;;;;7.68;2.70;;;12.00;57.00;;;;;;5050794;28;20043;-46
2022/05/04 09:18:25;;;;;;;4.95;1.25;;;11.90;56.20;;;;;;5046795;28;20064;-47
2022/05/04 09:20:55;;;;;;;7.60;1.90;;;12.10;57.20;;;;;;5053702;28;20047;-44
2022/05/04 09:23:30;;;;;;;9.57;2.53;;;11.90;56.10;;;;;;5052965;28;20029;-45
2022/05/04 09:25:58;;;;;;;6.97;1.90;;;11.90;56.30;;;;;;5052678;28;20071;-47
2022/05/04 09:28:26;;;;;;;11.90;2.22;;;12.00;58.20;;;;;;5049614;28;20120;-48
2022/05/04 09:30:59;;;;;;;5.00;2.00;;;12.10;58.00;;;;;;5050018;28;20021;-46
2022/05/04 09:33:32;;;;;;;5.88;1.70;;;12.10;57.90;;;;;;5013817;28;20037;-49
2022/05/04 09:36:03;;;;;;;6.93;2.00;;;11.90;56.80;;;;;;5030938;28;20430;-45
2022/05/04 09:46:53;;;;;;;5.80;1.50;;;11.50;59.30;;;;;;5051514;28;20126;-49
2022/05/04 09:49:29;;;;;;;7.40;1.92;;;11.50;59.30;;;;;;5014182;28;20022;-46
2022/05/04 09:51:56;;;;;;;4.95;1.90;;;11.80;58.70;;;;;;5007630;28;20377;-46
2022/05/04 09:54:27;;;;;;;6.70;2.20;;;11.70;58.30;;;;;;5045892;28;20506;-46
2022/05/04 09:57:03;;;;;;;8.57;2.60;;;11.60;58.60;;;;;;5013387;28;20112;-48
2022/05/04 09:59:36;;;;;;;9.05;2.15;;;11.50;58.60;;;;;;5012945;28;20443;-45
2022/05/04 10:02:09;;;;;;;7.13;2.50;;;11.50;58.20;;;;;;5045897;28;20026;-45
2022/05/04 10:04:38;;;;;;;6.25;2.00;;;11.60;58.10;;;;;;5016815;28;20022;-46
2022/05/04 10:07:05;;;;;;;9.23;2.67;;;11.40;59.10;;;;;;5013159;28;20072;-46
2022/05/04 10:09:32;;;;;;;6.85;2.40;;;11.30;59.50;;;;;;5013270;28;20087;-46
2022/05/04 10:12:02;;;;;;;11.20;2.45;;;11.40;59.90;;;;;;5013985;28;20356;-46
2022/05/04 10:14:29;;;;;;;7.50;1.90;;;11.40;59.80;;;;;;5028796;28;20064;-46
2022/05/04 10:17:23;;;;;;;5.40;1.70;;;11.40;59.00;;;;;;5013241;28;20018;-47
2022/05/04 10:20:11;;;;;;;9.98;2.00;;;11.50;58.30;;;;;;5012858;28;20509;-45
2022/05/04 10:22:49;;;;;;;10.18;2.70;;;11.50;58.70;;;;;;5013566;28;20033;-49
2022/05/04 10:25:16;;;;;;;6.97;2.30;;;11.50;59.60;;;;;;5013284;28;20037;-45
2022/05/04 10:27:46;;;;;;;5.05;1.45;;;11.50;59.30;;;;;;5011031;28;20034;-45
2022/05/04 10:30:30;;;;;;;7.10;1.48;;;11.50;58.60;;;;;;5013250;28;20034;-46
2022/05/04 10:33:18;;;;;;;8.02;2.63;;;11.50;58.60;;;;;;5044007;28;20080;-45
2022/05/04 10:36:27;;;;;;;11.40;2.22;;;11.60;57.90;;;;;;5013362;28;20398;-45
2022/05/04 10:39:06;;;;;;;9.45;1.75;;;11.60;57.60;;;;;;5012361;28;20026;-46
2022/05/04 10:41:43;;;;;;;7.30;2.22;;;11.80;57.80;;;;;;5012660;28;20350;-44
2022/05/04 10:44:09;;;;;;;5.10;1.85;;;11.90;56.30;;;;;;5012664;28;20515;-47
2022/05/04 10:46:38;;;;;;;6.15;2.00;;;12.10;57.50;;;;;;5012807;28;20045;-45
2022/05/04 10:49:08;;;;;;;9.45;1.90;;;12.20;55.20;;;;;;5012492;28;20026;-47
2022/05/04 10:51:35;;;;;;;7.18;1.60;;;12.10;55.50;;;;;;5005525;28;20037;-45
2022/05/04 10:54:19;;;;;;;10.23;1.70;;;12.00;56.00;;;;;;5012133;28;20062;-48
2022/05/04 10:56:52;;;;;;;5.63;1.50;;;12.10;57.80;;;;;;5013286;28;20029;-46
2022/05/04 10:59:39;;;;;;;8.50;1.60;;;12.30;57.50;;;;;;5012160;28;20042;-45
2022/05/04 11:02:14;;;;;;;5.45;1.77;;;12.40;56.10;;;;;;5016773;28;20041;-46
2022/05/04 11:04:53;;;;;;;9.45;2.30;;;12.30;55.80;;;;;;5028499;28;20021;-45
2022/05/04 11:07:27;;;;;;;9.23;2.10;;;12.30;55.70;;;;;;5045338;28;20037;-46
2022/05/04 11:09:59;;;;;;;5.10;1.83;;;12.40;55.70;;;;;;5011450;28;20034;-45
2022/05/04 11:12:26;;;;;;;5.40;1.83;;;12.60;55.50;;;;;;5012923;28;20038;-47
2022/05/04 11:14:53;;;;;;;6.20;2.35;;;12.60;54.20;;;;;;5013177;28;20026;-45
2022/05/04 11:17:20;;;;;;;8.90;2.08;;;12.40;54.80;;;;;;5011374;28;20026;-45
2022/05/04 11:19:48;;;;;;;7.10;2.60;;;12.40;56.00;;;;;;5042937;28;20166;-46
2022/05/04 11:22:19;;;;;;;9.60;2.80;;;12.30;55.10;;;;;;5016314;28;20753;-44
2022/05/04 11:24:47;;;;;;;5.38;2.28;;;12.40;55.60;;;;;;5012426;28;20047;-45
2022/05/04 11:27:16;;;;;;;6.93;2.05;;;12.50;55.50;;;;;;5030927;28;20037;-46
2022/05/04 11:29:44;;;;;;;6.60;1.92;;;12.50;54.30;;;;;;5012995;28;20026;-45
2022/05/04 11:32:19;;;;;;;8.50;1.77;;;12.60;54.80;;;;;;5012234;28;20113;-45
2022/05/04 11:34:46;;;;;;;10.20;2.17;;;12.80;53.20;;;;;;5013174;28;20030;-46
2022/05/04 11:37:14;;;;;;;5.50;1.50;;;12.80;53.30;;;;;;5042167;28;20092;-45
2022/05/04 11:39:42;;;;;;;10.82;1.90;;;12.90;53.30;;;;;;5012815;28;20025;-46
2022/05/04 11:42:08;;;;;;;8.15;2.03;;;12.80;52.60;;;;;;4993936;28;20371;-45
2022/05/04 11:44:41;;;;;;;9.15;1.67;;;12.80;53.80;;;;;;5010560;28;20038;-47
2022/05/04 11:47:08;;;;;;;8.65;1.83;;;12.80;53.90;;;;;;5011155;28;20069;-45
2022/05/04 11:49:34;;;;;;;8.75;2.20;;;12.90;54.10;;;;;;5012777;28;20087;-49
2022/05/04 11:52:02;;;;;;;9.38;1.77;;;12.70;53.50;;;;;;5012158;28;20088;-45
2022/05/04 11:54:31;;;;;;;5.78;1.60;;;12.60;55.60;;;;;;5031417;28;20084;-45
2022/05/04 11:56:57;;;;;;;7.22;2.03;;;12.50;54.70;;;;;;5031454;28;20026;-45
2022/05/04 11:59:32;;;;;;;6.25;2.08;;;12.60;55.20;;;;;;5034475;28;20573;-45
2022/05/04 12:02:03;;;;;;;7.63;2.40;;;12.90;56.10;;;;;;5034654;28;20073;-47
2022/05/04 12:04:33;;;;;;;7.90;1.85;;;12.90;55.00;;;;;;5031011;28;20121;-45
2022/05/04 12:07:02;;;;;;;5.15;1.67;;;12.90;54.10;;;;;;5031977;28;20037;-45
2022/05/04 12:09:29;;;;;;;6.05;1.50;;;12.90;56.20;;;;;;5031699;28;20037;-50
2022/05/04 12:11:55;;;;;;;4.00;1.85;;;12.90;56.50;;;;;;5032168;28;20029;-46
2022/05/04 12:14:22;;;;;;;8.05;1.88;;;12.80;55.40;;;;;;5035294;28;20107;-45
2022/05/04 12:16:49;;;;;;;6.40;1.92;;;12.80;54.60;;;;;;5035177;28;20033;-45
2022/05/04 12:19:17;;;;;;;6.30;1.42;;;12.90;56.00;;;;;;5035047;28;20095;-45
2022/05/04 12:21:45;;;;;;;3.75;1.52;;;12.80;54.90;;;;;;5035212;28;20752;-45
2022/05/04 12:24:13;;;;;;;11.93;2.95;;;13.00;56.10;;;;;;5049691;28;20033;-46
2022/05/04 12:26:42;;;;;;;5.70;1.98;;;12.90;54.80;;;;;;5034279;28;20331;-44
2022/05/04 12:34:42;;;;;;;6.75;1.50;;;12.30;56.30;;;;;;5036154;28;20087;-45
2022/05/04 12:37:11;;;;;;;3.78;1.60;;;12.30;57.20;;;;;;5035412;28;20049;-45
2022/05/04 12:39:41;;;;;;;5.78;1.55;;;12.60;56.60;;;;;;5035059;28;20026;-45
2022/05/04 12:42:07;;;;;;;;;;;12.80;56.70;;;;;;5035488;28;20060;-44
2022/05/04 12:44:33;;;;;;;9.55;2.22;;;13.00;54.80;;;;;;5034871;28;19908;-44
2022/05/04 12:47:01;;;;;;;7.45;2.13;;;13.20;55.20;;;;;;5034605;28;20048;-45
2022/05/04 12:49:28;;;;;;;6.63;1.55;;;13.20;55.70;;;;;;5035179;28;20410;-45
2022/05/04 12:51:58;;;;;;;5.07;2.08;;;13.10;55.30;;;;;;5067240;28;20447;-46
2022/05/04 12:54:26;;;;;;;6.82;1.70;;;13.00;55.70;;;;;;5012090;28;20189;-45
2022/05/04 12:56:53;;;;;;;5.25;1.42;;;13.00;55.50;;;;;;5015166;28;20038;-45
2022/05/04 12:59:20;;;;;;;6.15;2.38;;;13.00;54.30;;;;;;5013988;28;20030;-46
2022/05/04 13:01:47;;;;;;;5.70;1.90;;;12.90;54.80;;;;;;5043112;28;20779;-45
2022/05/04 13:04:15;;;;;;;9.75;2.40;;;12.90;55.60;;;;;;5017784;28;20105;-46
2022/05/04 13:06:41;;;;;;;10.25;2.33;;;12.90;56.20;;;;;;5015241;28;20026;-45
2022/05/04 13:09:08;;;;;;;7.18;2.50;;;12.80;54.90;;;;;;5014386;28;20034;-46
2022/05/04 13:11:35;;;;;;;4.72;2.10;;;12.90;56.70;;;;;;5014583;28;20045;-45
2022/05/04 13:14:04;;;;;;;15.63;2.58;;;13.00;54.80;;;;;;5014755;28;20030;-45
2022/05/04 13:16:36;;;;;;;7.00;1.88;;;13.20;55.10;;;;;;5014501;28;20113;-45
2022/05/04 13:19:05;;;;;;;8.32;2.28;;;13.30;54.50;;;;;;5013973;28;20125;-47
2022/05/04 13:21:34;;;;;;;7.30;1.77;;;13.20;54.10;;;;;;5014779;28;20493;-47
2022/05/04 13:24:02;;;;;;;6.68;1.90;;;13.20;53.70;;;;;;5013953;28;20033;-47
2022/05/04 13:26:28;;;;;;;8.35;2.25;;;13.40;54.20;;;;;;5042022;28;20406;-45
2022/05/04 13:28:55;;;;;;;6.55;1.88;;;13.50;55.40;;;;;;5013560;28;20128;-44
2022/05/04 13:31:21;;;;;;;5.85;2.00;;;13.50;55.50;;;;;;5014468;28;20117;-46
2022/05/04 13:33:48;;;;;;;7.03;2.05;;;13.10;56.30;;;;;;5044289;28;20384;-46
2022/05/04 13:36:15;;;;;;;7.95;1.60;;;13.00;57.30;;;;;;5027081;28;20028;-46
2022/05/04 13:38:41;;;;;;;4.95;1.30;;;12.80;56.80;;;;;;5046309;28;20050;-45